Time;durP1;ratioP1;P1;durP2;ratioP2;P2;SDS_P1;SDS_P2;PMS_P1;PMS_P2;Temp;Humidity;BMP_temperature;BMP_pressure;BME280_temperature;BME280_humidity;BME280_pressure;Samples;Min_cycle;Max_cycle;Signal;HPM_P1;HPM_P2
2021/11/10 00:02:41;;;;;;;13.80;8.15;;;;;;;;;;5027212;28;20499;-68
2021/11/10 00:05:26;;;;;;;14.32;7.63;;;;;;;;;;5019936;28;20505;-68
2021/11/10 00:08:11;;;;;;;16.15;9.63;;;;;;;;;;5026947;28;20032;-70
2021/11/10 00:10:57;;;;;;;13.25;8.27;;;;;;;;;;5025351;28;20113;-70
2021/11/10 00:13:42;;;;;;;12.25;7.68;;;;;;;;;;5021661;28;20056;-66
2021/11/10 00:16:27;;;;;;;18.17;11.07;;;;;;;;;;5027158;28;20104;-66
2021/11/10 00:19:12;;;;;;;17.30;8.98;;;;;;;;;;5025925;28;20707;-65
2021/11/10 00:21:58;;;;;;;14.48;9.70;;;;;;;;;;5019671;28;20634;-66
2021/11/10 00:24:43;;;;;;;17.20;9.10;;;;;;;;;;5025173;28;20140;-67
2021/11/10 00:27:28;;;;;;;17.25;8.40;;;;;;;;;;5026290;28;20123;-65
2021/11/10 00:30:14;;;;;;;17.85;8.55;;;;;;;;;;5031003;28;20041;-67
2021/11/10 00:32:59;;;;;;;15.93;9.25;;;;;;;;;;5027866;28;20041;-67
2021/11/10 00:35:45;;;;;;;15.10;9.25;;;;;;;;;;5033253;28;20075;-64
2021/11/10 00:38:30;;;;;;;17.17;9.38;;;;;;;;;;5031491;28;20041;-66
2021/11/10 00:41:16;;;;;;;14.88;8.98;;;;;;;;;;5027632;28;20021;-65
2021/11/10 00:44:01;;;;;;;17.42;8.93;;;;;;;;;;5033260;28;20052;-66
2021/11/10 00:46:47;;;;;;;15.18;8.82;;;;;;;;;;5029167;28;20028;-63
2021/11/10 00:49:32;;;;;;;16.48;9.38;;;;;;;;;;5026348;28;20045;-67
2021/11/10 00:52:17;;;;;;;16.75;9.45;;;;;;;;;;5035871;28;20103;-67
2021/11/10 00:55:03;;;;;;;13.60;8.05;;;;;;;;;;5029088;28;20473;-68
2021/11/10 00:57:49;;;;;;;11.95;7.38;;;;;;;;;;5052353;28;20033;-68
2021/11/10 01:00:34;;;;;;;13.52;8.63;;;;;;;;;;5031006;28;20037;-67
2021/11/10 01:03:20;;;;;;;22.38;8.38;;;;;;;;;;5017718;28;20025;-67
2021/11/10 01:06:05;;;;;;;14.65;7.97;;;;;;;;;;5030247;28;20030;-68
2021/11/10 01:08:52;;;;;;;13.07;7.45;;;;;;;;;;5040846;28;20033;-66
2021/11/10 01:11:37;;;;;;;15.25;8.13;;;;;;;;;;5056069;28;20025;-67
2021/11/10 01:14:23;;;;;;;16.00;7.50;;;;;;;;;;5054623;28;20068;-67
2021/11/10 01:17:11;;;;;;;14.82;8.98;;;;;;;;;;5052601;28;20402;-64
2021/11/10 01:19:56;;;;;;;12.25;7.35;;;;;;;;;;5030575;28;20037;-65
2021/11/10 01:22:41;;;;;;;14.38;8.38;;;;;;;;;;5028503;28;20029;-65
2021/11/10 01:25:27;;;;;;;15.88;7.85;;;;;;;;;;5043246;28;20051;-63
2021/11/10 01:28:12;;;;;;;17.45;8.38;;;;;;;;;;5051869;28;20037;-65
2021/11/10 01:30:58;;;;;;;12.75;8.25;;;;;;;;;;5030067;28;20380;-63
2021/11/10 01:33:43;;;;;;;13.68;8.40;;;;;;;;;;5054602;28;20032;-66
2021/11/10 01:36:28;;;;;;;12.45;8.68;;;;;;;;;;5028346;28;20073;-63
2021/11/10 01:39:13;;;;;;;15.20;7.45;;;;;;;;;;5032227;28;20020;-63
2021/11/10 01:42:03;;;;;;;16.85;9.45;;;;;;;;;;5029624;28;20040;-66
2021/11/10 01:44:48;;;;;;;;;;;;;;;;;;5030295;28;20116;-71
2021/11/10 01:47:34;;;;;;;15.70;9.50;;;;;;;;;;5030404;28;20096;-71
2021/11/10 01:50:19;;;;;;;17.17;8.80;;;;;;;;;;5027348;28;20541;-70
2021/11/10 01:53:04;;;;;;;13.95;7.97;;;;;;;;;;5032879;28;20032;-70
2021/11/10 01:55:50;;;;;;;16.20;8.10;;;;;;;;;;5028736;28;20060;-71
2021/11/10 01:58:36;;;;;;;16.65;9.43;;;;;;;;;;5030024;28;20017;-73
2021/11/10 02:01:22;;;;;;;13.15;8.55;;;;;;;;;;5051248;28;20033;-68
2021/11/10 02:04:08;;;;;;;17.67;9.82;;;;;;;;;;5029173;28;20489;-66
2021/11/10 02:06:53;;;;;;;15.38;9.00;;;;;;;;;;5026887;28;20392;-66
2021/11/10 02:09:39;;;;;;;19.85;9.48;;;;;;;;;;5053567;28;20080;-65
2021/11/10 02:12:24;;;;;;;21.13;10.60;;;;;;;;;;5028563;28;20024;-67
2021/11/10 02:15:11;;;;;;;16.17;9.77;;;;;;;;;;5030912;28;20120;-68
2021/11/10 02:17:57;;;;;;;18.38;9.05;;;;;;;;;;5024161;28;20060;-65
2021/11/10 02:20:47;;;;;;;14.90;9.02;;;;;;;;;;5024757;28;20029;-66
2021/11/10 02:23:32;;;;;;;15.18;9.35;;;;;;;;;;5029552;28;20057;-65
2021/11/10 02:26:22;;;;;;;18.67;9.88;;;;;;;;;;5011094;28;20068;-64
2021/11/10 02:29:07;;;;;;;;;;;;;;;;;;5029282;28;20059;-63
2021/11/10 02:31:54;;;;;;;15.60;9.48;;;;;;;;;;5039676;28;20004;-64
2021/11/10 02:34:40;;;;;;;16.80;9.80;;;;;;;;;;5029492;28;20105;-65
2021/11/10 02:37:26;;;;;;;15.32;9.68;;;;;;;;;;5053742;28;20120;-71
2021/11/10 02:40:11;;;;;;;17.42;9.82;;;;;;;;;;5028969;28;20082;-65
2021/11/10 02:42:57;;;;;;;15.57;9.68;;;;;;;;;;5054590;28;20033;-64
2021/11/10 02:45:42;;;;;;;19.40;9.60;;;;;;;;;;5022658;28;20046;-65
2021/11/10 02:48:27;;;;;;;16.30;9.85;;;;;;;;;;5042050;28;20041;-65
2021/11/10 02:51:13;;;;;;;17.15;9.95;;;;;;;;;;5028656;28;20104;-67
2021/11/10 02:53:59;;;;;;;12.25;8.13;;;;;;;;;;5026755;28;20118;-68
2021/11/10 02:56:44;;;;;;;14.82;9.68;;;;;;;;;;5028211;28;20953;-64
2021/11/10 02:59:29;;;;;;;18.48;12.02;;;;;;;;;;5054685;28;20457;-66
2021/11/10 03:02:15;;;;;;;18.35;10.32;;;;;;;;;;5026527;28;20041;-65
2021/11/10 03:05:00;;;;;;;19.45;11.95;;;;;;;;;;5031302;28;20048;-66
2021/11/10 03:07:46;;;;;;;16.52;9.82;;;;;;;;;;5027033;28;20025;-65
2021/11/10 03:10:31;;;;;;;16.40;10.25;;;;;;;;;;5024625;28;20056;-65
2021/11/10 03:13:17;;;;;;;19.55;10.95;;;;;;;;;;5025920;28;20547;-65
2021/11/10 03:16:02;;;;;;;17.92;10.73;;;;;;;;;;5047719;28;20037;-68
2021/11/10 03:18:47;;;;;;;19.63;11.93;;;;;;;;;;5025622;28;20472;-68
2021/11/10 03:21:32;;;;;;;21.05;12.10;;;;;;;;;;5026412;28;20075;-68
2021/11/10 03:24:18;;;;;;;19.23;11.85;;;;;;;;;;5023985;28;20534;-67
2021/11/10 03:27:03;;;;;;;16.35;11.30;;;;;;;;;;5025089;28;20068;-67
2021/11/10 03:29:51;;;;;;;15.73;10.45;;;;;;;;;;5026177;28;20032;-69
2021/11/10 03:32:37;;;;;;;21.13;11.43;;;;;;;;;;5027559;28;20076;-64
2021/11/10 03:35:23;;;;;;;20.17;11.57;;;;;;;;;;5027101;28;20026;-73
2021/11/10 03:38:08;;;;;;;19.45;11.18;;;;;;;;;;5026531;28;20370;-73
2021/11/10 03:40:53;;;;;;;19.95;11.63;;;;;;;;;;5041083;28;20033;-72
2021/11/10 03:43:39;;;;;;;18.92;10.70;;;;;;;;;;5029914;28;20361;-70
2021/11/10 03:46:25;;;;;;;21.17;12.30;;;;;;;;;;5027494;28;20035;-72
2021/11/10 03:49:10;;;;;;;18.27;11.82;;;;;;;;;;5022047;28;20091;-67
2021/11/10 03:51:55;;;;;;;16.38;10.88;;;;;;;;;;5026567;28;20423;-68
2021/11/10 03:54:41;;;;;;;21.85;11.75;;;;;;;;;;5021005;28;20088;-62
2021/11/10 03:57:27;;;;;;;19.20;11.52;;;;;;;;;;5026373;28;20468;-64
2021/11/10 04:00:12;;;;;;;21.20;11.07;;;;;;;;;;5026229;28;20037;-63
2021/11/10 04:02:57;;;;;;;18.05;10.57;;;;;;;;;;5025385;28;20417;-64
2021/11/10 04:05:42;;;;;;;19.70;12.23;;;;;;;;;;5028933;28;20056;-64
2021/11/10 04:08:28;;;;;;;17.33;10.82;;;;;;;;;;5029458;28;20033;-64
2021/11/10 04:11:13;;;;;;;18.80;11.65;;;;;;;;;;5035771;28;20033;-62
2021/11/10 04:13:59;;;;;;;22.13;12.82;;;;;;;;;;5028352;28;20381;-64
2021/11/10 04:16:44;;;;;;;22.55;11.82;;;;;;;;;;5033421;28;20033;-64
2021/11/10 04:19:29;;;;;;;20.63;11.98;;;;;;;;;;5029439;28;20083;-63
2021/11/10 04:22:14;;;;;;;21.40;13.27;;;;;;;;;;5029932;28;20062;-65
2021/11/10 04:25:00;;;;;;;22.00;12.10;;;;;;;;;;4978851;28;1166232;-64
2021/11/10 04:27:45;;;;;;;19.77;11.43;;;;;;;;;;5016861;28;20104;-66
2021/11/10 04:30:31;;;;;;;19.92;11.77;;;;;;;;;;5032504;28;20615;-66
2021/11/10 04:33:16;;;;;;;23.27;12.98;;;;;;;;;;5033307;28;20062;-67
2021/11/10 04:36:01;;;;;;;19.70;12.70;;;;;;;;;;5030006;28;20083;-68
2021/11/10 04:38:47;;;;;;;17.77;10.77;;;;;;;;;;5029954;28;20495;-66
2021/11/10 04:41:32;;;;;;;19.42;12.23;;;;;;;;;;5034864;28;20025;-67
2021/11/10 04:44:18;;;;;;;18.25;11.63;;;;;;;;;;5032458;28;20493;-65
2021/11/10 04:47:03;;;;;;;17.95;12.05;;;;;;;;;;5030569;28;20034;-66
2021/11/10 04:49:48;;;;;;;18.35;11.68;;;;;;;;;;5031253;28;20060;-71
2021/11/10 04:52:35;;;;;;;17.42;11.32;;;;;;;;;;5031539;28;20040;-70
2021/11/10 04:55:20;;;;;;;18.23;10.38;;;;;;;;;;5015610;28;20083;-71
2021/11/10 04:58:06;;;;;;;20.00;12.60;;;;;;;;;;5028128;28;20034;-72
2021/11/10 05:00:51;;;;;;;18.92;11.75;;;;;;;;;;5027180;28;20025;-70
2021/11/10 05:03:36;;;;;;;21.17;13.10;;;;;;;;;;5028858;28;20481;-66
2021/11/10 05:06:22;;;;;;;17.85;11.50;;;;;;;;;;5031465;28;20030;-69
2021/11/10 05:09:07;;;;;;;17.38;11.93;;;;;;;;;;5048683;28;20087;-69
2021/11/10 05:11:52;;;;;;;21.48;12.68;;;;;;;;;;5034114;28;20033;-69
2021/11/10 05:14:37;;;;;;;21.08;12.68;;;;;;;;;;5029381;28;20152;-71
2021/11/10 05:17:23;;;;;;;16.90;11.30;;;;;;;;;;5034609;28;20481;-70
2021/11/10 05:20:09;;;;;;;22.48;12.98;;;;;;;;;;5028686;28;20033;-68
2021/11/10 05:22:54;;;;;;;17.77;11.45;;;;;;;;;;5029458;28;20061;-65
2021/11/10 05:25:40;;;;;;;24.10;13.15;;;;;;;;;;5030648;28;20148;-71
2021/11/10 05:28:25;;;;;;;19.70;12.05;;;;;;;;;;5015269;28;20032;-73
2021/11/10 05:31:10;;;;;;;19.45;11.73;;;;;;;;;;5034961;28;20425;-71
2021/11/10 05:33:55;;;;;;;17.60;10.95;;;;;;;;;;5026391;28;20025;-72
2021/11/10 05:36:41;;;;;;;23.52;12.65;;;;;;;;;;5017858;28;20018;-71
2021/11/10 05:39:26;;;;;;;19.98;12.40;;;;;;;;;;5015469;28;20026;-71
2021/11/10 05:42:11;;;;;;;20.60;13.48;;;;;;;;;;5031179;28;20033;-65
2021/11/10 05:44:57;;;;;;;22.83;11.80;;;;;;;;;;5028897;28;20029;-65
2021/11/10 05:47:42;;;;;;;22.77;12.60;;;;;;;;;;5029748;28;20573;-65
2021/11/10 05:50:27;;;;;;;19.13;12.10;;;;;;;;;;5028960;28;20021;-67
2021/11/10 05:53:13;;;;;;;19.00;12.57;;;;;;;;;;5016607;28;20033;-66
2021/11/10 05:56:00;;;;;;;18.00;11.48;;;;;;;;;;5042253;28;20088;-63
2021/11/10 05:58:45;;;;;;;20.27;11.85;;;;;;;;;;5027613;28;20026;-68
2021/11/10 06:01:33;;;;;;;21.77;12.10;;;;;;;;;;5027521;28;20036;-65
2021/11/10 06:04:18;;;;;;;20.10;12.80;;;;;;;;;;5027325;28;20048;-66
2021/11/10 06:07:04;;;;;;;19.65;12.20;;;;;;;;;;5019353;28;20448;-64
2021/11/10 06:09:50;;;;;;;22.05;12.75;;;;;;;;;;5027760;28;20025;-66
2021/11/10 06:12:36;;;;;;;20.08;13.88;;;;;;;;;;5027891;28;20029;-65
2021/11/10 06:15:22;;;;;;;20.85;14.35;;;;;;;;;;5026775;28;20033;-63
2021/11/10 06:18:08;;;;;;;23.10;13.13;;;;;;;;;;5031835;28;20390;-64
2021/11/10 06:20:53;;;;;;;24.42;15.98;;;;;;;;;;5029080;28;20030;-71
2021/11/10 06:23:38;;;;;;;21.65;13.32;;;;;;;;;;5015719;28;20037;-72
2021/11/10 06:26:24;;;;;;;23.88;15.25;;;;;;;;;;5028628;28;20049;-73
2021/11/10 06:29:09;;;;;;;21.60;13.30;;;;;;;;;;5032362;28;20242;-72
2021/11/10 06:31:54;;;;;;;23.67;13.80;;;;;;;;;;5032721;28;20596;-71
2021/11/10 06:34:40;;;;;;;24.52;14.95;;;;;;;;;;5029038;28;20088;-73
2021/11/10 06:37:25;;;;;;;25.20;14.40;;;;;;;;;;5012965;28;20469;-68
2021/11/10 06:40:11;;;;;;;21.48;14.55;;;;;;;;;;5026332;28;20033;-73
2021/11/10 06:42:56;;;;;;;23.77;14.70;;;;;;;;;;5032502;28;20029;-72
2021/11/10 06:45:44;;;;;;;23.02;14.70;;;;;;;;;;5030928;28;20033;-72
2021/11/10 06:48:30;;;;;;;22.17;13.60;;;;;;;;;;5030699;28;20554;-73
2021/11/10 06:51:15;;;;;;;24.60;16.02;;;;;;;;;;5023057;28;20037;-74
2021/11/10 06:54:00;;;;;;;21.48;13.93;;;;;;;;;;5031027;28;20493;-70
2021/11/10 06:56:46;;;;;;;24.30;15.25;;;;;;;;;;5027280;28;20022;-67
2021/11/10 06:59:31;;;;;;;25.20;16.23;;;;;;;;;;5032107;28;20460;-67
2021/11/10 07:02:17;;;;;;;28.33;15.35;;;;;;;;;;5028223;28;20412;-66
2021/11/10 07:05:02;;;;;;;24.80;15.73;;;;;;;;;;5031854;28;20036;-69
2021/11/10 07:07:47;;;;;;;25.65;15.82;;;;;;;;;;5015316;28;20104;-66
2021/11/10 07:10:33;;;;;;;22.85;15.20;;;;;;;;;;5013811;28;20563;-66
2021/11/10 07:13:18;;;;;;;27.30;15.25;;;;;;;;;;5030638;28;20109;-65
2021/11/10 07:16:04;;;;;;;26.05;15.60;;;;;;;;;;5041412;28;20029;-73
2021/11/10 07:18:49;;;;;;;25.85;16.23;;;;;;;;;;5024473;28;20491;-74
2021/11/10 07:21:34;;;;;;;25.83;16.48;;;;;;;;;;5055038;28;20029;-75
2021/11/10 07:24:20;;;;;;;26.13;15.82;;;;;;;;;;5054099;28;20136;-73
2021/11/10 07:27:05;;;;;;;30.02;16.88;;;;;;;;;;5027802;28;20048;-72
2021/11/10 07:29:50;;;;;;;28.00;16.75;;;;;;;;;;5028035;28;20025;-73
2021/11/10 07:32:36;;;;;;;25.17;15.35;;;;;;;;;;5028854;28;20025;-66
2021/11/10 07:35:21;;;;;;;28.20;17.33;;;;;;;;;;5016350;28;20361;-69
2021/11/10 07:38:06;;;;;;;24.17;15.52;;;;;;;;;;5022369;28;20033;-66
2021/11/10 07:40:53;;;;;;;29.67;16.50;;;;;;;;;;5026740;28;20116;-67
2021/11/10 07:43:38;;;;;;;55.10;30.25;;;;;;;;;;5027290;28;20018;-69
2021/11/10 07:46:26;;;;;;;23.33;15.75;;;;;;;;;;5028139;28;20041;-68
2021/11/10 07:49:11;;;;;;;28.10;16.90;;;;;;;;;;5027530;28;20485;-68
2021/11/10 07:51:59;;;;;;;29.48;16.25;;;;;;;;;;5012868;28;20113;-68
2021/11/10 07:54:44;;;;;;;27.63;16.33;;;;;;;;;;5022853;28;20468;-69
2021/11/10 07:57:29;;;;;;;29.20;16.55;;;;;;;;;;5027598;28;20034;-68
2021/11/10 08:00:16;;;;;;;20.48;13.93;;;;;;;;;;5026975;28;20044;-69
2021/11/10 08:03:01;;;;;;;28.05;17.10;;;;;;;;;;5024709;28;20130;-67
2021/11/10 08:05:47;;;;;;;26.60;14.75;;;;;;;;;;5026862;28;20037;-67
2021/11/10 08:08:32;;;;;;;24.58;16.50;;;;;;;;;;5028508;28;20032;-67
2021/11/10 08:11:17;;;;;;;30.00;17.30;;;;;;;;;;5033369;28;20033;-67
2021/11/10 08:14:03;;;;;;;114.28;67.68;;;;;;;;;;5025915;28;20052;-70
2021/11/10 08:16:48;;;;;;;28.00;17.50;;;;;;;;;;5026982;28;20421;-68
2021/11/10 08:19:34;;;;;;;23.45;15.05;;;;;;;;;;5024238;28;20041;-68
2021/11/10 08:22:19;;;;;;;23.55;14.80;;;;;;;;;;5031012;28;20076;-66
2021/11/10 08:25:07;;;;;;;35.22;15.82;;;;;;;;;;5048757;28;20524;-66
2021/11/10 08:27:54;;;;;;;24.30;14.60;;;;;;;;;;5024812;28;20053;-65
2021/11/10 08:30:39;;;;;;;27.27;15.52;;;;;;;;;;5016355;28;20529;-65
2021/11/10 08:33:25;;;;;;;32.15;15.95;;;;;;;;;;5045970;28;20457;-68
2021/11/10 08:36:10;;;;;;;30.42;17.67;;;;;;;;;;5028468;28;20064;-68
2021/11/10 08:38:56;;;;;;;27.00;15.70;;;;;;;;;;5027621;28;20171;-68
2021/11/10 08:41:43;;;;;;;25.80;15.95;;;;;;;;;;5030280;28;20026;-64
2021/11/10 08:44:29;;;;;;;26.73;15.55;;;;;;;;;;5026290;28;20048;-66
2021/11/10 08:47:14;;;;;;;31.42;17.75;;;;;;;;;;5031035;28;20078;-66
2021/11/10 08:49:59;;;;;;;23.55;15.80;;;;;;;;;;5016050;28;20470;-66
2021/11/10 08:52:45;;;;;;;23.95;15.57;;;;;;;;;;5028602;28;20023;-65
2021/11/10 08:55:31;;;;;;;25.20;14.63;;;;;;;;;;5032319;28;20030;-65
2021/11/10 08:58:17;;;;;;;24.80;15.00;;;;;;;;;;5032725;28;20067;-67
2021/11/10 09:01:02;;;;;;;23.23;15.70;;;;;;;;;;5054666;28;20029;-64
2021/11/10 09:03:47;;;;;;;28.33;16.13;;;;;;;;;;5032175;28;20031;-70
2021/11/10 09:06:33;;;;;;;25.17;15.60;;;;;;;;;;5029904;28;20029;-64
2021/11/10 09:09:18;;;;;;;23.23;15.30;;;;;;;;;;5027759;28;20033;-65
2021/11/10 09:12:03;;;;;;;23.52;15.10;;;;;;;;;;5018596;28;20117;-65
2021/11/10 09:14:49;;;;;;;25.42;14.80;;;;;;;;;;5025719;28;20398;-64
2021/11/10 09:17:35;;;;;;;53.60;33.47;;;;;;;;;;5030011;28;20025;-65
2021/11/10 09:20:22;;;;;;;34.63;23.55;;;;;;;;;;5030377;28;20091;-63
2021/11/10 09:23:08;;;;;;;27.40;14.60;;;;;;;;;;5027640;28;20029;-66
2021/11/10 09:25:53;;;;;;;24.42;15.43;;;;;;;;;;5037192;28;20107;-65
2021/11/10 09:28:39;;;;;;;23.23;14.68;;;;;;;;;;5029457;28;20029;-62
2021/11/10 09:31:24;;;;;;;26.77;14.80;;;;;;;;;;5016229;28;20045;-63
2021/11/10 09:34:11;;;;;;;32.50;16.85;;;;;;;;;;5030286;28;20033;-66
2021/11/10 09:36:57;;;;;;;27.10;16.35;;;;;;;;;;5029700;28;20026;-63
2021/11/10 09:39:42;;;;;;;24.60;15.88;;;;;;;;;;5035492;28;20037;-65
2021/11/10 09:42:27;;;;;;;23.90;16.20;;;;;;;;;;5030189;28;20033;-68
2021/11/10 09:45:15;;;;;;;26.40;15.02;;;;;;;;;;5030383;28;20047;-65
2021/11/10 09:48:01;;;;;;;25.48;15.18;;;;;;;;;;5024900;28;20676;-66
2021/11/10 09:50:48;;;;;;;25.45;17.08;;;;;;;;;;5029533;28;20025;-67
2021/11/10 09:53:33;;;;;;;23.05;16.50;;;;;;;;;;5027205;28;20499;-66
2021/11/10 09:56:20;;;;;;;26.08;16.00;;;;;;;;;;5017252;28;20033;-66
2021/11/10 09:59:06;;;;;;;22.90;15.48;;;;;;;;;;5029623;28;20035;-68
2021/11/10 10:01:51;;;;;;;29.58;17.02;;;;;;;;;;5030537;28;20029;-66
2021/11/10 10:04:40;;;;;;;25.60;16.25;;;;;;;;;;5028117;28;20044;-66
2021/11/10 10:07:26;;;;;;;29.27;17.75;;;;;;;;;;5025165;28;20026;-68
2021/11/10 10:10:11;;;;;;;25.15;16.25;;;;;;;;;;5028431;28;20392;-66
2021/11/10 10:12:58;;;;;;;24.05;17.17;;;;;;;;;;5032072;28;20119;-66
2021/11/10 10:15:43;;;;;;;26.63;16.15;;;;;;;;;;5028371;28;20353;-67
2021/11/10 10:18:29;;;;;;;24.23;17.45;;;;;;;;;;5032059;28;20033;-65
2021/11/10 10:21:17;;;;;;;24.83;18.08;;;;;;;;;;5034150;28;20055;-65
2021/11/10 10:24:02;;;;;;;23.73;17.48;;;;;;;;;;5025361;28;20026;-66
2021/11/10 10:26:47;;;;;;;27.90;18.52;;;;;;;;;;5052194;28;20432;-66
2021/11/10 10:29:33;;;;;;;28.08;17.92;;;;;;;;;;5024553;28;20034;-69
2021/11/10 10:32:28;;;;;;;81.45;54.30;;;;;;;;;;5055858;28;20465;-68
2021/11/10 10:35:33;;;;;;;32.00;21.25;;;;;;;;;;5029011;28;20500;-64
2021/11/10 10:38:21;;;;;;;32.08;19.20;;;;;;;;;;5027181;28;20061;-65
2021/11/10 10:41:07;;;;;;;25.75;18.15;;;;;;;;;;5028296;28;20570;-64
2021/11/10 10:43:53;;;;;;;29.13;17.85;;;;;;;;;;5027776;28;20029;-65
2021/11/10 10:46:41;;;;;;;29.55;17.73;;;;;;;;;;5027731;28;20048;-64
2021/11/10 10:49:32;;;;;;;29.38;17.38;;;;;;;;;;5029801;28;20519;-63
2021/11/10 10:52:19;;;;;;;40.55;17.10;;;;;;;;;;5044947;28;20060;-65
2021/11/10 10:55:04;;;;;;;27.20;15.77;;;;;;;;;;5029599;28;20412;-64
2021/11/10 10:57:55;;;;;;;27.60;17.63;;;;;;;;;;5041713;28;20026;-63
2021/11/10 11:00:41;;;;;;;27.15;17.73;;;;;;;;;;5026358;28;20404;-65
2021/11/10 11:03:27;;;;;;;29.63;17.13;;;;;;;;;;5028245;28;20036;-67
2021/11/10 11:06:21;;;;;;;29.35;18.33;;;;;;;;;;5026860;28;20552;-64
2021/11/10 11:09:09;;;;;;;28.77;18.15;;;;;;;;;;5033230;28;20502;-64
2021/11/10 11:11:59;;;;;;;27.73;17.67;;;;;;;;;;5032992;28;20048;-65
2021/11/10 11:14:46;;;;;;;25.90;18.45;;;;;;;;;;5011175;28;20045;-65
2021/11/10 11:17:33;;;;;;;29.70;16.80;;;;;;;;;;5028419;28;20029;-65
2021/11/10 11:20:19;;;;;;;29.25;18.52;;;;;;;;;;5027729;28;20042;-70
2021/11/10 11:23:05;;;;;;;37.50;22.70;;;;;;;;;;5029657;28;20093;-65
2021/11/10 11:25:51;;;;;;;54.75;36.83;;;;;;;;;;5028202;28;20052;-63
2021/11/10 11:28:38;;;;;;;32.70;19.67;;;;;;;;;;5026892;28;20117;-63
2021/11/10 11:31:33;;;;;;;33.42;18.88;;;;;;;;;;5024760;28;20041;-67
2021/11/10 11:34:19;;;;;;;29.70;18.77;;;;;;;;;;5029071;28;20044;-65
2021/11/10 11:37:05;;;;;;;29.10;17.77;;;;;;;;;;5025657;28;20013;-65
2021/11/10 11:39:50;;;;;;;34.67;17.50;;;;;;;;;;5026250;28;20037;-69
2021/11/10 11:42:36;;;;;;;29.55;17.15;;;;;;;;;;5011895;28;20188;-65
2021/11/10 11:45:21;;;;;;;28.95;18.38;;;;;;;;;;5027326;28;20044;-64
2021/11/10 11:48:08;;;;;;;31.40;18.10;;;;;;;;;;5029423;28;20048;-69
2021/11/10 11:50:56;;;;;;;29.15;19.65;;;;;;;;;;5027954;28;20044;-67
2021/11/10 11:53:42;;;;;;;29.75;19.08;;;;;;;;;;5024472;28;20049;-64
2021/11/10 11:56:27;;;;;;;32.78;18.48;;;;;;;;;;5026979;28;20782;-66
2021/11/10 11:59:13;;;;;;;25.08;17.27;;;;;;;;;;5022340;28;20064;-62
2021/11/10 12:02:01;;;;;;;30.60;18.17;;;;;;;;;;5019470;28;20353;-63
2021/11/10 12:04:47;;;;;;;24.85;17.92;;;;;;;;;;5028071;28;20037;-62
2021/11/10 12:08:11;;;;;;;29.13;18.52;;;;;;;;;;5013336;28;20069;-64
2021/11/10 12:10:56;;;;;;;30.38;18.88;;;;;;;;;;4992304;28;20464;-64
2021/11/10 12:14:00;;;;;;;34.33;17.65;;;;;;;;;;4993464;28;20109;-65
2021/11/10 12:17:04;;;;;;;32.85;20.65;;;;;;;;;;4997021;28;20030;-64
2021/11/10 12:19:54;;;;;;;32.40;17.98;;;;;;;;;;4999158;28;20086;-67
2021/11/10 12:22:39;;;;;;;29.00;18.30;;;;;;;;;;5001318;28;20037;-64
2021/11/10 12:25:24;;;;;;;32.20;17.77;;;;;;;;;;4983686;28;20144;-65
2021/11/10 12:28:29;;;;;;;27.85;18.85;;;;;;;;;;4995844;28;20458;-65
2021/11/10 12:31:30;;;;;;;30.90;19.60;;;;;;;;;;5015980;28;20030;-63
2021/11/10 12:34:15;;;;;;;25.10;16.10;;;;;;;;;;4982144;28;20517;-64
2021/11/10 12:37:04;;;;;;;31.45;16.77;;;;;;;;;;4994872;28;20025;-64
2021/11/10 12:39:58;;;;;;;29.05;17.35;;;;;;;;;;5008675;28;20595;-64
2021/11/10 12:42:56;;;;;;;30.73;19.65;;;;;;;;;;5057703;28;20109;-66
2021/11/10 12:45:50;;;;;;;29.50;16.52;;;;;;;;;;5027337;28;20057;-64
2021/11/10 12:48:41;;;;;;;29.98;17.60;;;;;;;;;;5034640;28;20055;-63
2021/11/10 12:51:30;;;;;;;29.08;18.23;;;;;;;;;;5029999;28;20029;-67
2021/11/10 12:54:23;;;;;;;24.48;18.65;;;;;;;;;;5030782;28;20520;-63
2021/11/10 12:57:09;;;;;;;28.65;17.45;;;;;;;;;;5029465;28;20064;-66
2021/11/10 12:59:55;;;;;;;32.95;19.02;;;;;;;;;;5024140;28;20096;-64
2021/11/10 13:02:40;;;;;;;30.30;18.17;;;;;;;;;;5032442;28;20021;-64
2021/11/10 13:05:38;;;;;;;29.10;16.85;;;;;;;;;;5028820;28;20033;-63
2021/11/10 13:08:39;;;;;;;27.33;18.15;;;;;;;;;;5029580;28;20032;-65
2021/11/10 13:11:26;;;;;;;30.50;17.77;;;;;;;;;;5029647;28;20039;-64
2021/11/10 13:14:13;;;;;;;28.25;18.38;;;;;;;;;;5016474;28;20068;-64
2021/11/10 13:16:59;;;;;;;29.98;18.15;;;;;;;;;;5033594;28;20447;-63
2021/11/10 13:19:46;;;;;;;34.92;18.10;;;;;;;;;;5027357;28;20026;-64
2021/11/10 13:22:37;;;;;;;30.40;18.58;;;;;;;;;;5018519;28;20543;-64
2021/11/10 13:25:27;;;;;;;26.25;17.73;;;;;;;;;;5039292;28;20077;-65
2021/11/10 13:28:13;;;;;;;37.42;21.70;;;;;;;;;;5032530;28;20250;-65
2021/11/10 13:30:58;;;;;;;30.92;20.25;;;;;;;;;;5017319;28;20029;-67
2021/11/10 13:33:44;;;;;;;29.10;17.25;;;;;;;;;;5029626;28;20087;-67
2021/11/10 13:36:29;;;;;;;26.40;17.50;;;;;;;;;;5028754;28;20392;-66
2021/11/10 13:39:15;;;;;;;31.92;16.88;;;;;;;;;;5028559;28;20104;-69
2021/11/10 13:42:01;;;;;;;23.52;16.88;;;;;;;;;;5020415;28;20100;-64
2021/11/10 13:44:48;;;;;;;30.33;18.08;;;;;;;;;;5033003;28;20033;-65
2021/11/10 13:47:33;;;;;;;72.28;50.00;;;;;;;;;;5033546;28;20043;-63
2021/11/10 13:50:18;;;;;;;34.28;19.55;;;;;;;;;;5035299;28;20547;-68
2021/11/10 13:53:06;;;;;;;30.27;18.77;;;;;;;;;;5028828;28;20448;-66
2021/11/10 13:55:58;;;;;;;29.67;16.83;;;;;;;;;;5045521;28;20102;-63
2021/11/10 13:58:43;;;;;;;30.77;16.88;;;;;;;;;;5032623;28;20025;-65
2021/11/10 14:01:28;;;;;;;25.98;16.75;;;;;;;;;;5033335;28;20032;-62
2021/11/10 14:04:17;;;;;;;31.70;18.25;;;;;;;;;;5026802;28;20065;-64
2021/11/10 14:07:05;;;;;;;31.08;17.52;;;;;;;;;;5030560;28;20033;-65
2021/11/10 14:09:57;;;;;;;31.02;17.50;;;;;;;;;;5028326;28;20032;-64
2021/11/10 14:12:42;;;;;;;26.73;17.25;;;;;;;;;;5026886;28;20362;-65
2021/11/10 14:15:30;;;;;;;22.77;17.30;;;;;;;;;;5013919;28;20025;-64
2021/11/10 14:18:17;;;;;;;25.48;17.83;;;;;;;;;;5029767;28;20404;-66
2021/11/10 14:21:03;;;;;;;66.05;46.63;;;;;;;;;;5019533;28;20022;-66
2021/11/10 14:23:56;;;;;;;31.80;20.65;;;;;;;;;;5029362;28;20041;-68
2021/11/10 14:26:42;;;;;;;29.33;19.33;;;;;;;;;;5028879;28;20521;-68
2021/11/10 14:29:29;;;;;;;29.67;18.45;;;;;;;;;;5032236;28;20040;-68
2021/11/10 14:32:14;;;;;;;27.42;17.75;;;;;;;;;;5024016;28;20611;-65
2021/11/10 14:35:00;;;;;;;32.72;19.13;;;;;;;;;;5012057;28;20033;-66
2021/11/10 14:37:46;;;;;;;28.00;17.83;;;;;;;;;;5029068;28;20088;-67
2021/11/10 14:40:37;;;;;;;31.35;17.48;;;;;;;;;;5030448;28;20029;-64
2021/11/10 14:46:41;;;;;;;24.85;16.63;;;;;;;;;;5026380;28;20048;-65
2021/11/10 14:49:28;;;;;;;29.67;18.45;;;;;;;;;;5021816;28;20075;-66
2021/11/10 14:52:17;;;;;;;31.45;18.38;;;;;;;;;;5029496;28;20041;-67
2021/11/10 14:55:09;;;;;;;27.42;17.80;;;;;;;;;;5027499;28;20525;-65
2021/11/10 14:58:08;;;;;;;28.50;19.30;;;;;;;;;;5025766;28;20034;-68
2021/11/10 15:00:53;;;;;;;26.30;17.05;;;;;;;;;;5009965;28;20619;-71
2021/11/10 15:03:45;;;;;;;25.65;17.00;;;;;;;;;;5028714;28;20425;-69
2021/11/10 15:06:32;;;;;;;27.13;18.63;;;;;;;;;;5040937;28;20037;-69
2021/11/10 15:09:21;;;;;;;29.10;18.52;;;;;;;;;;5029710;28;20021;-69
2021/11/10 15:12:14;;;;;;;28.80;17.38;;;;;;;;;;5032131;28;20025;-64
2021/11/10 15:14:59;;;;;;;27.20;17.90;;;;;;;;;;5027202;28;20017;-64
2021/11/10 15:17:44;;;;;;;29.73;19.80;;;;;;;;;;5045464;28;20032;-64
2021/11/10 15:20:30;;;;;;;29.77;19.35;;;;;;;;;;5023808;28;20040;-67
2021/11/10 15:23:17;;;;;;;39.80;20.45;;;;;;;;;;5029051;28;20105;-63
2021/11/10 15:26:03;;;;;;;36.25;19.50;;;;;;;;;;5029014;28;20120;-65
2021/11/10 15:28:48;;;;;;;145.25;101.53;;;;;;;;;;5027967;28;21972;-64
2021/11/10 15:31:33;;;;;;;36.63;21.95;;;;;;;;;;5012930;28;20039;-65
2021/11/10 15:34:20;;;;;;;28.75;19.55;;;;;;;;;;5028573;28;20029;-68
2021/11/10 15:37:05;;;;;;;30.27;19.30;;;;;;;;;;5028330;28;20546;-67
2021/11/10 15:39:50;;;;;;;26.63;18.60;;;;;;;;;;5028212;28;20078;-67
2021/11/10 15:42:36;;;;;;;26.35;17.92;;;;;;;;;;5029798;28;20555;-66
2021/11/10 15:45:21;;;;;;;26.02;18.88;;;;;;;;;;5030432;28;20056;-66
2021/11/10 15:48:07;;;;;;;25.75;17.50;;;;;;;;;;5028657;28;20030;-64
2021/11/10 15:53:20;;;;;;;29.98;18.58;;;;;;;;;;4987142;28;20059;-62
2021/11/10 15:56:06;;;;;;;33.22;20.17;;;;;;;;;;4993974;28;20045;-62
2021/11/10 15:58:51;;;;;;;30.92;19.02;;;;;;;;;;4995118;28;20025;-61
2021/11/10 16:01:37;;;;;;;41.45;20.17;;;;;;;;;;4995461;28;20363;-64
2021/11/10 16:04:24;;;;;;;28.77;20.90;;;;;;;;;;4978576;28;20108;-62
2021/11/10 16:07:10;;;;;;;29.45;19.48;;;;;;;;;;4997343;28;20073;-65
2021/11/10 16:09:55;;;;;;;30.58;18.95;;;;;;;;;;4991326;28;20145;-63
2021/11/10 16:12:40;;;;;;;32.33;20.40;;;;;;;;;;4989674;28;20509;-63
2021/11/10 16:15:26;;;;;;;32.40;19.77;;;;;;;;;;4984737;28;20030;-62
2021/11/10 16:18:11;;;;;;;27.15;16.58;;;;;;;;;;4990893;28;20034;-61